createdAt,value
2018-07-08T12:04:11.994Z,40.03
2018-07-08T12:05:12.159Z,41.08
2018-07-08T12:06:12.313Z,41.20
2018-07-08T12:07:12.473Z,40.81
2018-07-08T12:08:12.633Z,39.47
2018-07-08T12:09:12.792Z,40.34
2018-07-08T12:10:12.955Z,39.74
2018-07-08T12:11:13.115Z,40.05
2018-07-08T12:12:13.277Z,39.76
2018-07-08T12:13:13.440Z,38.48
2018-07-08T12:14:13.601Z,39.26
2018-07-08T12:15:13.759Z,39.37
2018-07-08T12:16:13.920Z,39.47
2018-07-08T12:17:14.082Z,39.86
2018-07-08T12:18:14.242Z,40.34
2018-07-08T12:19:14.411Z,39.76
2018-07-08T12:20:14.573Z,39.76
2018-07-08T12:21:14.791Z,39.78
2018-07-08T12:22:14.887Z,39.67
2018-07-08T12:23:15.050Z,39.78
2018-07-08T12:24:15.210Z,39.78
2018-07-08T12:25:15.376Z,39.78
2018-07-08T12:26:15.530Z,40.08
2018-07-08T12:27:15.689Z,39.22
2018-07-08T12:28:15.854Z,38.83
2018-07-08T12:29:16.017Z,39.80
2018-07-08T12:30:16.178Z,38.15
2018-07-08T12:31:16.341Z,37.76
2018-07-08T12:32:16.501Z,38.93
2018-07-08T12:33:16.663Z,38.54
2018-07-08T12:34:16.826Z,36.71
2018-07-08T12:35:16.985Z,37.39
2018-07-08T12:36:17.148Z,38.06
2018-07-08T12:37:17.308Z,38.65
2018-07-08T12:38:17.472Z,39.04
2018-07-08T12:39:17.632Z,37.59
2018-07-08T12:40:17.796Z,37.39
2018-07-08T12:41:17.958Z,38.56
2018-07-08T12:42:18.122Z,37.66
2018-07-08T12:43:18.325Z,38.42
2018-07-08T12:44:18.453Z,39.29
2018-07-08T12:45:18.593Z,40.08
2018-07-08T12:46:18.758Z,39.78
2018-07-08T12:47:18.915Z,38.52
2018-07-08T12:48:19.081Z,39.78
2018-07-08T12:49:19.241Z,38.91
2018-07-08T12:50:19.405Z,39.88
2018-07-08T12:51:19.611Z,39.78
2018-07-08T12:52:19.727Z,38.93
2018-07-08T12:53:19.889Z,39.03
2018-07-08T12:54:20.051Z,39.61
2018-07-08T12:55:20.213Z,39.51
2018-07-08T12:56:20.390Z,39.41
2018-07-08T12:57:20.550Z,38.93
2018-07-08T12:58:20.706Z,39.80
2018-07-08T12:59:20.870Z,38.81
2018-07-08T13:00:21.029Z,39.49
2018-07-08T13:01:21.190Z,39.41
2018-07-08T13:02:21.353Z,38.75
2018-07-08T13:03:21.518Z,38.75
2018-07-08T13:04:21.694Z,38.56
2018-07-08T13:05:21.857Z,38.09
2018-07-08T13:06:22.058Z,38.07
2018-07-08T13:07:22.186Z,38.19
2018-07-08T13:08:22.348Z,37.90
2018-07-08T13:09:22.508Z,38.75
2018-07-08T13:10:22.668Z,38.46
2018-07-08T13:11:22.831Z,37.49
2018-07-08T13:12:22.995Z,37.59
2018-07-08T13:13:23.159Z,37.39
2018-07-08T13:14:23.318Z,36.83
2018-07-08T13:15:23.484Z,37.14
2018-07-08T13:16:23.644Z,38.11
2018-07-08T13:17:23.808Z,37.14
2018-07-08T13:18:24.000Z,36.15
2018-07-08T13:19:24.130Z,38.48
2018-07-08T13:20:24.296Z,36.73
2018-07-08T13:21:24.461Z,36.93
2018-07-08T13:22:24.627Z,36.93
2018-07-08T13:23:24.782Z,37.41
2018-07-08T13:24:24.950Z,37.02
2018-07-08T13:25:25.107Z,36.81
2018-07-08T13:26:25.316Z,37.37
2018-07-08T13:27:25.435Z,38.44
2018-07-08T13:28:25.584Z,38.54
2018-07-08T13:29:25.745Z,38.85
2018-07-08T13:30:25.918Z,38.27
2018-07-08T13:31:26.085Z,37.88
2018-07-08T13:32:26.275Z,38.06
2018-07-08T13:33:26.415Z,38.73
2018-07-08T13:34:26.579Z,38.15
2018-07-08T13:35:26.741Z,38.07
2018-07-08T13:36:26.906Z,37.39
2018-07-08T13:37:27.070Z,37.80
2018-07-08T13:38:27.235Z,37.02
2018-07-08T13:39:27.391Z,37.32
2018-07-08T13:40:27.566Z,36.24
2018-07-08T13:41:27.728Z,36.83
2018-07-08T13:42:27.889Z,35.88
2018-07-08T13:43:28.048Z,35.66
2018-07-08T13:44:28.209Z,36.24
2018-07-08T13:45:28.371Z,36.46
2018-07-08T13:46:28.535Z,36.57
2018-07-08T13:47:28.704Z,35.80
2018-07-08T13:48:28.857Z,37.46
2018-07-08T13:49:29.023Z,36.38
2018-07-08T13:50:29.189Z,35.80
2018-07-08T13:51:29.351Z,36.77
2018-07-08T13:52:29.516Z,37.84
2018-07-08T13:53:29.674Z,38.62
2018-07-08T13:54:29.837Z,36.10
2018-07-08T13:55:30.048Z,35.63
2018-07-08T13:56:30.171Z,35.53
2018-07-08T13:57:30.334Z,34.76
2018-07-08T13:58:30.496Z,34.19
2018-07-08T13:59:30.659Z,33.49
2018-07-08T14:00:30.823Z,33.86
2018-07-08T14:01:30.989Z,34.45
2018-07-08T14:02:31.148Z,34.94
2018-07-08T14:03:31.312Z,33.85
2018-07-08T14:04:31.474Z,33.96
2018-07-08T14:05:31.630Z,33.58
2018-07-08T14:06:31.792Z,33.49
2018-07-08T14:07:31.957Z,33.90
2018-07-08T14:08:32.119Z,33.88
2018-07-08T14:09:32.282Z,33.49
2018-07-08T14:10:32.444Z,33.77
2018-07-08T14:11:32.606Z,33.69
2018-07-08T14:12:32.769Z,33.39
2018-07-08T14:13:32.930Z,33.51
2018-07-08T14:14:33.095Z,33.44
2018-07-08T14:15:33.256Z,32.97
2018-07-08T14:16:33.417Z,31.84
2018-07-08T14:17:33.579Z,30.71
2018-07-08T14:18:33.743Z,31.22
2018-07-08T14:19:33.910Z,32.40
2018-07-08T14:20:34.117Z,31.31
2018-07-08T14:21:34.237Z,32.11
2018-07-08T14:22:34.398Z,30.74
2018-07-08T14:23:34.562Z,30.26
2018-07-08T14:24:34.725Z,30.57
2018-07-08T14:25:34.933Z,30.57
2018-07-08T14:26:35.052Z,29.96
2018-07-08T14:27:35.213Z,30.65
2018-07-08T14:28:35.377Z,30.57
2018-07-08T14:29:35.537Z,29.24
2018-07-08T14:30:35.696Z,28.57
2018-07-08T14:31:35.861Z,29.58
2018-07-08T14:32:36.024Z,27.12
2018-07-08T14:33:36.189Z,27.33
2018-07-08T14:34:36.350Z,27.48
2018-07-08T14:35:36.514Z,28.06
2018-07-08T14:36:36.675Z,28.68
2018-07-08T14:37:36.843Z,28.19
2018-07-08T14:38:37.003Z,28.36
2018-07-08T14:39:37.166Z,28.44
2018-07-08T14:40:37.364Z,28.54
2018-07-08T14:41:37.494Z,28.81
2018-07-08T14:42:37.657Z,29.41
2018-07-08T14:43:37.820Z,30.19
2018-07-08T14:44:38.045Z,29.71
2018-07-08T14:45:38.150Z,28.85
2018-07-08T14:46:38.314Z,28.09
2018-07-08T14:47:38.475Z,27.88
2018-07-08T14:48:38.639Z,28.57
2018-07-08T14:49:38.803Z,27.69
2018-07-08T14:50:38.965Z,27.23
2018-07-08T14:51:39.133Z,27.19
2018-07-08T14:52:39.366Z,27.12
2018-07-08T14:53:39.459Z,26.06
2018-07-08T14:54:39.622Z,25.50
2018-07-08T14:55:39.789Z,26.09
2018-07-08T14:56:39.950Z,25.43
2018-07-08T14:57:40.113Z,24.36
2018-07-08T14:58:40.277Z,23.58
2018-07-08T14:59:40.441Z,23.38
2018-07-08T15:00:40.604Z,23.49
2018-07-08T15:01:40.770Z,23.78
2018-07-08T15:02:40.932Z,23.09
2018-07-08T15:03:41.096Z,22.71
2018-07-08T15:04:41.316Z,23.09
2018-07-08T15:05:41.425Z,24.26
2018-07-08T15:06:41.592Z,24.05
2018-07-08T15:07:41.759Z,24.60
2018-07-08T15:08:41.922Z,25.87
2018-07-08T15:09:42.122Z,25.95
2018-07-08T15:10:42.255Z,25.85
2018-07-08T15:11:42.417Z,26.64
2018-07-08T15:12:42.586Z,26.55
2018-07-08T15:13:42.748Z,25.85
2018-07-08T15:14:42.916Z,26.27
2018-07-08T15:15:43.118Z,26.35
2018-07-08T15:16:43.244Z,26.26
2018-07-08T15:17:43.467Z,26.65
2018-07-08T15:18:43.567Z,26.26
2018-07-08T15:19:43.734Z,25.95
2018-07-08T15:20:43.926Z,26.03
2018-07-08T15:21:44.101Z,26.44
2018-07-08T15:22:44.228Z,26.23
2018-07-08T15:23:44.393Z,26.62
2018-07-08T15:24:44.559Z,26.53
2018-07-08T15:25:44.710Z,26.53
2018-07-08T15:26:44.875Z,26.92
2018-07-08T15:27:45.038Z,26.22
2018-07-08T15:28:45.207Z,26.59
2018-07-08T15:29:45.371Z,27.28
2018-07-08T15:30:45.537Z,28.43
2018-07-08T15:31:45.708Z,27.26
2018-07-08T15:32:45.885Z,27.25
2018-07-08T15:33:46.038Z,27.84
2018-07-08T15:34:46.205Z,27.86
2018-07-08T15:35:46.368Z,28.06
2018-07-08T15:36:46.535Z,27.29
2018-07-08T15:37:46.701Z,27.88
2018-07-08T15:38:46.872Z,26.44
2018-07-08T15:39:47.037Z,25.07
2018-07-08T15:40:47.201Z,25.94
2018-07-08T15:41:47.371Z,26.14
2018-07-08T15:42:47.535Z,26.15
2018-07-08T15:43:47.700Z,26.33
2018-07-08T15:44:47.866Z,26.31
2018-07-08T15:45:48.030Z,27.08
2018-07-08T15:46:48.196Z,26.97
2018-07-08T15:47:48.360Z,27.44
2018-07-08T15:48:48.524Z,27.45
2018-07-08T15:49:48.745Z,27.37
2018-07-08T15:50:48.851Z,27.36
2018-07-08T15:51:49.017Z,27.06
2018-07-08T15:52:49.180Z,27.16
2018-07-08T15:53:49.345Z,26.59
2018-07-08T15:54:49.509Z,26.59
2018-07-08T15:55:49.677Z,27.37
2018-07-08T15:56:49.842Z,26.98
2018-07-08T15:57:50.007Z,26.60
2018-07-08T15:58:50.171Z,27.39
2018-07-08T15:59:50.333Z,26.50
2018-07-08T16:00:50.501Z,26.22
2018-07-08T16:01:50.664Z,25.95
2018-07-08T16:02:50.827Z,26.27
2018-07-08T16:03:50.991Z,25.48
2018-07-08T16:04:51.158Z,25.48
2018-07-08T16:05:51.325Z,25.16
2018-07-08T16:06:51.487Z,26.04
2018-07-08T16:07:51.652Z,25.38
2018-07-08T16:08:51.818Z,25.10
2018-07-08T16:09:51.981Z,25.38
2018-07-08T16:10:52.148Z,24.98
2018-07-08T16:11:52.355Z,25.87
2018-07-08T16:12:52.474Z,25.29
2018-07-08T16:13:52.643Z,25.49
2018-07-08T16:14:52.805Z,24.68
2018-07-08T16:15:52.971Z,24.97
2018-07-08T16:16:53.135Z,25.37
2018-07-08T16:17:53.303Z,25.17
2018-07-08T16:18:53.491Z,25.38
2018-07-08T16:19:53.631Z,25.45
2018-07-08T16:20:53.799Z,25.24
2018-07-08T16:21:53.964Z,25.45
2018-07-08T16:22:54.128Z,25.63
2018-07-08T16:23:54.297Z,25.76
2018-07-08T16:24:54.462Z,24.73
2018-07-08T16:25:54.626Z,22.41
2018-07-08T16:26:54.790Z,22.31
2018-07-08T16:27:54.954Z,22.33
2018-07-08T16:28:55.119Z,21.66
2018-07-08T16:29:55.284Z,20.76
2018-07-08T16:30:55.450Z,21.25
2018-07-08T16:31:55.614Z,22.78
2018-07-08T16:32:55.786Z,22.69
2018-07-08T16:33:55.951Z,22.38
2018-07-08T16:34:56.115Z,22.97
2018-07-08T16:35:56.280Z,23.45
2018-07-08T16:36:56.450Z,23.46
2018-07-08T16:37:56.618Z,23.17
2018-07-08T16:38:56.787Z,23.63
2018-07-08T16:39:56.950Z,25.17
2018-07-08T16:40:57.115Z,25.55
2018-07-08T16:41:57.310Z,26.79
2018-07-08T16:42:57.446Z,26.51
2018-07-08T16:43:57.609Z,26.22
2018-07-08T16:44:57.782Z,25.74
2018-07-08T16:45:57.945Z,26.40
2018-07-08T16:46:58.111Z,26.90
2018-07-08T16:47:58.281Z,26.05
2018-07-08T16:48:58.443Z,25.16
2018-07-08T16:49:58.607Z,25.84
2018-07-08T16:50:58.778Z,25.94
2018-07-08T16:51:58.938Z,26.32
2018-07-08T16:52:59.125Z,26.03
2018-07-08T16:53:59.297Z,26.40
2018-07-08T16:54:59.463Z,27.20
2018-07-08T16:55:59.631Z,26.22
2018-07-08T16:56:59.796Z,26.99
2018-07-08T16:57:59.963Z,26.23
2018-07-08T16:59:00.129Z,26.23
2018-07-08T17:00:00.293Z,25.17
2018-07-08T17:01:00.461Z,26.15
2018-07-08T17:02:00.626Z,26.05
2018-07-08T17:03:00.792Z,25.39
2018-07-08T17:04:00.961Z,24.51
2018-07-08T17:05:01.128Z,25.10
2018-07-08T17:06:01.294Z,25.20
2018-07-08T17:07:01.464Z,25.66
2018-07-08T17:08:01.630Z,26.50
2018-07-08T17:09:01.817Z,27.37
2018-07-08T17:10:01.987Z,27.76
2018-07-08T17:11:02.149Z,27.17
2018-07-08T17:12:02.313Z,27.66
2018-07-08T17:13:02.482Z,26.98
2018-07-08T17:14:02.645Z,27.09
2018-07-08T17:15:02.816Z,27.19
2018-07-08T17:16:03.036Z,27.00
2018-07-08T17:17:03.145Z,27.09
2018-07-08T17:18:03.310Z,27.38
2018-07-08T17:19:03.474Z,27.28
2018-07-08T17:20:03.641Z,26.88
2018-07-08T17:21:03.806Z,27.47
2018-07-08T17:22:03.970Z,27.66
2018-07-08T17:23:04.135Z,27.09
2018-07-08T17:24:04.301Z,26.81
2018-07-08T17:25:04.468Z,26.32
2018-07-08T17:26:04.648Z,27.48
2018-07-08T17:27:04.802Z,26.97
2018-07-08T17:28:04.967Z,27.08
2018-07-08T17:29:05.132Z,27.86
2018-07-08T17:30:05.300Z,28.05
2018-07-08T17:31:05.466Z,27.73
2018-07-08T17:32:05.630Z,27.66
2018-07-08T17:33:05.818Z,27.86
2018-07-08T17:34:05.965Z,27.47
2018-07-08T17:35:06.130Z,27.36
2018-07-08T17:36:06.297Z,27.64
2018-07-08T17:37:06.461Z,28.13
2018-07-08T17:38:06.625Z,27.93
2018-07-08T17:39:06.801Z,28.32
2018-07-08T17:40:06.963Z,28.03
2018-07-08T17:41:07.130Z,28.61
2018-07-08T17:42:07.294Z,29.27
2018-07-08T17:43:07.465Z,30.88
2018-07-08T17:44:07.633Z,31.43
2018-07-08T17:45:07.799Z,32.49
2018-07-08T17:46:07.964Z,32.76
2018-07-08T17:47:08.130Z,33.43
2018-07-08T17:48:08.296Z,33.72
2018-07-08T17:49:08.461Z,34.87
2018-07-08T17:50:08.627Z,35.33
2018-07-08T17:51:08.789Z,35.92
2018-07-08T17:52:08.958Z,36.02
2018-07-08T17:53:09.121Z,36.11
2018-07-08T17:54:09.291Z,36.87
2018-07-08T17:55:09.463Z,37.26
2018-07-08T17:56:09.630Z,36.66
2018-07-08T17:57:09.805Z,37.15
2018-07-08T17:58:09.970Z,37.53
2018-07-08T17:59:10.151Z,38.12
2018-07-08T18:00:10.339Z,37.90
2018-07-08T18:01:10.503Z,38.09
2018-07-08T18:02:10.667Z,38.29
2018-07-08T18:03:10.833Z,38.48
2018-07-08T18:04:10.998Z,38.68
2018-07-08T18:05:11.174Z,38.48
2018-07-08T18:06:11.338Z,38.68
2018-07-08T18:07:11.505Z,38.39
2018-07-08T18:08:11.666Z,38.48
2018-07-08T18:09:11.830Z,38.27
2018-07-08T18:10:11.991Z,38.37
2018-07-08T18:11:12.153Z,38.37
2018-07-08T18:12:12.316Z,38.46
2018-07-08T18:13:12.477Z,38.37
2018-07-08T18:14:12.675Z,39.72
2018-07-08T18:15:12.799Z,39.43
2018-07-08T18:16:12.961Z,38.85
2018-07-08T18:17:13.129Z,39.34
2018-07-08T18:18:13.293Z,39.34
2018-07-08T18:19:13.451Z,39.34
2018-07-08T18:20:13.615Z,39.62
2018-07-08T18:21:13.798Z,39.82
2018-07-08T18:22:13.945Z,39.70
2018-07-08T18:23:14.158Z,39.90
2018-07-08T18:24:14.265Z,39.90
2018-07-08T18:25:14.427Z,39.90
2018-07-08T18:26:14.589Z,39.51
2018-07-08T18:27:14.747Z,40.00
2018-07-08T18:28:14.910Z,40.28
2018-07-08T18:29:15.070Z,40.19
2018-07-08T18:30:15.257Z,40.09
2018-07-08T18:31:15.432Z,40.67
2018-07-08T18:32:15.591Z,40.77
2018-07-08T18:33:15.778Z,40.19
2018-07-08T18:34:15.932Z,40.09
2018-07-08T18:35:16.094Z,40.75
2018-07-08T18:36:16.255Z,40.84
2018-07-08T18:37:16.414Z,40.94
2018-07-08T18:38:16.579Z,40.75
2018-07-08T18:39:16.737Z,41.14
2018-07-08T18:40:16.909Z,40.65
2018-07-08T18:41:17.111Z,41.14
2018-07-08T18:42:17.291Z,40.94
2018-07-08T18:43:17.464Z,41.14
2018-07-08T18:44:17.627Z,41.04
2018-07-08T18:45:17.787Z,40.65
2018-07-08T18:46:18.122Z,41.14
2018-07-08T18:47:18.111Z,40.83
2018-07-08T18:48:18.272Z,41.33
2018-07-08T18:49:18.434Z,41.24
2018-07-08T18:50:18.620Z,41.52
2018-07-08T18:51:18.785Z,41.31
2018-07-08T18:52:18.952Z,41.31
2018-07-08T18:53:19.130Z,41.89
2018-07-08T18:54:19.265Z,41.60
2018-07-08T18:55:19.432Z,41.70
2018-07-08T18:56:19.609Z,42.18
2018-07-08T18:57:19.834Z,42.08
2018-07-08T18:58:19.881Z,41.89
2018-07-08T18:59:20.174Z,42.08
2018-07-08T19:00:20.244Z,42.07
2018-07-08T19:01:20.432Z,42.47
2018-07-08T19:02:20.611Z,42.35
2018-07-08T19:03:20.770Z,42.83
2018-07-08T19:04:20.956Z,42.83
2018-07-08T19:05:21.130Z,42.65
2018-07-08T19:06:21.322Z,42.93
2018-07-08T19:07:21.520Z,42.83
2018-07-08T19:08:21.783Z,42.93
2018-07-08T19:09:21.828Z,42.93
2018-07-08T19:10:21.995Z,43.23
2018-07-08T19:11:22.171Z,43.99
2018-07-08T19:12:22.353Z,43.78
2018-07-08T19:13:22.518Z,43.98
2018-07-08T19:14:22.739Z,43.98
2018-07-08T19:15:22.850Z,43.59
2018-07-08T19:16:23.032Z,43.78
2018-07-08T19:17:23.105Z,44.36
2018-07-08T19:18:23.277Z,43.98
2018-07-08T19:19:23.448Z,44.17
2018-07-08T19:20:23.606Z,44.56
2018-07-08T19:21:23.808Z,44.46
2018-07-08T19:22:23.988Z,44.26
2018-07-08T19:23:24.258Z,44.65
2018-07-08T19:24:24.343Z,44.73
2018-07-08T19:25:24.516Z,45.11
2018-07-08T19:26:24.812Z,44.34
2018-07-08T19:27:24.855Z,44.46
2018-07-08T19:28:25.163Z,44.92
2018-07-08T19:29:25.307Z,44.43
2018-07-08T19:30:25.473Z,44.73
2018-07-08T19:31:25.608Z,44.92
2018-07-08T19:32:25.708Z,44.73
2018-07-08T19:33:25.889Z,44.82
2018-07-08T19:34:26.025Z,44.63
2018-07-08T19:35:26.140Z,44.92
2018-07-08T19:36:26.256Z,45.50
2018-07-08T19:37:26.413Z,45.50
2018-07-08T19:38:26.580Z,45.40
2018-07-08T19:39:26.739Z,45.48
2018-07-08T19:40:26.903Z,45.38
2018-07-08T19:41:27.036Z,45.48
2018-07-08T19:42:27.190Z,45.48
2018-07-08T19:43:27.285Z,45.96
2018-07-08T19:44:27.366Z,45.96
2018-07-08T19:45:27.615Z,45.76
2018-07-08T19:46:27.693Z,45.67
2018-07-08T19:47:27.993Z,46.15
2018-07-08T19:48:28.041Z,46.06
2018-07-08T19:49:28.186Z,45.96
2018-07-08T19:50:28.339Z,46.06
2018-07-08T19:51:28.437Z,45.96
2018-07-08T19:52:28.544Z,46.44
2018-07-08T19:53:28.616Z,45.86
2018-07-08T19:54:28.863Z,46.25
2018-07-08T19:55:29.025Z,46.25
2018-07-08T19:56:29.120Z,47.02
2018-07-08T19:57:29.286Z,47.09
2018-07-08T19:58:29.540Z,47.00
2018-07-08T19:59:29.641Z,47.09
2018-07-08T20:00:29.724Z,47.09
2018-07-08T20:01:29.945Z,47.38
2018-07-08T20:02:30.017Z,47.29
2018-07-08T20:03:30.182Z,47.58
2018-07-08T20:04:30.416Z,47.38
2018-07-08T20:05:30.512Z,47.67
2018-07-08T20:06:30.638Z,47.58
2018-07-08T20:07:30.805Z,47.77
2018-07-08T20:08:31.051Z,47.67
2018-07-08T20:09:31.152Z,47.96
2018-07-08T20:10:31.231Z,48.16
2018-07-08T20:11:31.476Z,48.44
2018-07-08T20:12:31.524Z,48.16
2018-07-08T20:13:31.755Z,48.44
2018-07-08T20:14:31.855Z,48.23
2018-07-08T20:15:31.977Z,48.42
2018-07-08T20:16:32.258Z,48.23
2018-07-08T20:17:32.277Z,47.85
2018-07-08T20:18:32.438Z,48.33
2018-07-08T20:19:32.666Z,48.71
2018-07-08T20:20:32.790Z,48.52
2018-07-08T20:21:32.987Z,48.61
2018-07-08T20:22:32.997Z,48.52
2018-07-08T20:23:33.220Z,49.00
2018-07-08T20:24:33.259Z,48.52
2018-07-08T20:25:33.446Z,48.71
2018-07-08T20:26:33.632Z,49.58
2018-07-08T20:27:33.852Z,48.90
2018-07-08T20:28:33.935Z,48.61
2018-07-08T20:29:34.105Z,49.00
2018-07-08T20:30:34.260Z,48.71
2018-07-08T20:31:34.493Z,48.88
2018-07-08T20:32:34.553Z,49.17
2018-07-08T20:33:34.721Z,49.27
2018-07-08T20:34:34.877Z,50.13
2018-07-08T20:35:35.173Z,49.55
2018-07-08T20:36:35.226Z,50.13
2018-07-08T20:37:35.319Z,49.84
2018-07-08T20:38:35.511Z,50.04
2018-07-08T20:39:35.600Z,50.42
2018-07-08T20:40:35.773Z,50.42
2018-07-08T20:41:35.968Z,50.42
2018-07-08T20:42:36.132Z,50.52
2018-07-08T20:43:36.298Z,50.81
2018-07-08T20:44:36.458Z,50.30
2018-07-08T20:45:36.621Z,51.29
2018-07-08T20:46:36.780Z,51.29
2018-07-08T20:47:37.008Z,51.26
2018-07-08T20:48:37.041Z,51.46
2018-07-08T20:49:37.202Z,51.00
2018-07-08T20:50:37.354Z,51.10
2018-07-08T20:51:37.511Z,51.56
2018-07-08T20:52:37.674Z,51.84
2018-07-08T20:53:37.830Z,52.71
2018-07-08T20:54:37.986Z,51.65
2018-07-08T20:55:38.158Z,51.75
2018-07-08T20:56:38.317Z,51.75
2018-07-08T20:57:38.482Z,51.75
2018-07-08T20:58:38.647Z,51.36
2018-07-08T20:59:38.811Z,51.46
2018-07-08T21:00:38.967Z,52.61
2018-07-08T21:01:39.123Z,52.33
2018-07-08T21:02:39.280Z,52.81
2018-07-08T21:03:39.433Z,52.71
2018-07-08T21:04:39.591Z,53.29
2018-07-08T21:05:39.749Z,52.91
2018-07-08T21:06:39.908Z,52.81
2018-07-08T21:07:40.063Z,52.42
2018-07-08T21:08:40.218Z,52.33
2018-07-08T21:09:40.384Z,52.71
2018-07-08T21:10:40.534Z,52.91
2018-07-08T21:11:40.695Z,53.00
2018-07-08T21:12:40.905Z,53.27
2018-07-08T21:13:41.009Z,53.74
2018-07-08T21:14:41.178Z,53.65
2018-07-08T21:15:41.335Z,53.45
2018-07-08T21:16:41.496Z,54.13
2018-07-08T21:17:41.664Z,53.36
2018-07-08T21:18:41.843Z,53.55
2018-07-08T21:19:41.989Z,53.65
2018-07-08T21:20:42.143Z,53.84
2018-07-08T21:21:42.298Z,54.00
2018-07-08T21:22:42.452Z,54.80
2018-07-08T21:23:42.608Z,54.58
2018-07-08T21:24:42.788Z,54.87
2018-07-08T21:25:42.921Z,54.78
2018-07-08T21:26:43.076Z,54.30
2018-07-08T21:27:43.237Z,54.13
2018-07-08T21:28:43.397Z,54.32
2018-07-08T21:29:43.550Z,54.03
2018-07-08T21:30:43.704Z,54.61
2018-07-08T21:31:43.861Z,53.94
2018-07-08T21:32:44.018Z,54.80
2018-07-08T21:33:44.174Z,54.80
2018-07-08T21:34:44.328Z,54.03
2018-07-08T21:35:44.486Z,54.61
2018-07-08T21:36:44.641Z,53.94
2018-07-08T21:37:44.795Z,53.94
2018-07-08T21:38:44.958Z,54.42
2018-07-08T21:39:45.115Z,55.16
2018-07-08T21:40:45.270Z,54.78
2018-07-08T21:41:45.429Z,54.58
2018-07-08T21:42:45.589Z,55.07
2018-07-08T21:43:45.742Z,55.16
2018-07-08T21:44:45.900Z,55.74
2018-07-08T21:45:46.057Z,55.65
2018-07-08T21:46:46.212Z,55.81
2018-07-08T21:47:46.372Z,56.58
2018-07-08T21:48:46.530Z,57.06
2018-07-08T21:49:46.694Z,58.12
2018-07-08T21:50:46.843Z,57.80
2018-07-08T21:51:46.998Z,58.31
2018-07-08T21:52:47.153Z,58.67
2018-07-08T21:53:47.310Z,58.47
2018-07-08T21:54:47.470Z,59.05
2018-07-08T21:55:47.632Z,59.05
2018-07-08T21:56:47.787Z,58.95
2018-07-08T21:57:47.942Z,58.76
2018-07-08T21:58:48.100Z,59.44
2018-07-08T21:59:48.253Z,59.79
2018-07-08T22:00:48.414Z,60.66
2018-07-08T22:01:48.569Z,60.56
2018-07-08T22:02:48.725Z,60.27
2018-07-08T22:03:48.881Z,61.04
2018-07-08T22:04:49.036Z,61.14
2018-07-08T22:05:49.192Z,61.33
2018-07-08T22:06:49.349Z,61.23
2018-07-08T22:07:49.504Z,61.14
2018-07-08T22:08:49.661Z,61.91
2018-07-08T22:09:49.821Z,61.61
2018-07-08T22:10:49.973Z,60.94
2018-07-08T22:11:50.128Z,60.94
2018-07-08T22:12:50.285Z,61.49
2018-07-08T22:13:50.438Z,61.71
2018-07-08T22:14:50.596Z,62.35
2018-07-08T22:15:50.751Z,62.84
2018-07-08T22:16:50.908Z,62.64
2018-07-08T22:17:51.063Z,63.12
2018-07-08T22:18:51.217Z,63.79
2018-07-08T22:19:51.380Z,64.09
2018-07-08T22:20:51.531Z,63.89
2018-07-08T22:21:51.684Z,63.79
2018-07-08T22:22:51.842Z,63.79
2018-07-08T22:23:51.996Z,64.43
2018-07-08T22:24:52.153Z,64.82
2018-07-08T22:25:52.305Z,65.01
2018-07-08T22:26:52.463Z,65.01
2018-07-08T22:27:52.619Z,65.11
2018-07-08T22:28:52.773Z,66.07
2018-07-08T22:29:52.927Z,66.52
2018-07-08T22:30:53.081Z,65.97
2018-07-08T22:31:53.236Z,66.93
2018-07-08T22:32:53.406Z,65.97
2018-07-08T22:33:53.546Z,66.46
2018-07-08T22:34:53.701Z,66.71
2018-07-08T22:35:53.856Z,66.80
2018-07-08T22:36:54.012Z,66.80
2018-07-08T22:37:54.166Z,66.80
2018-07-08T22:38:54.320Z,67.00
2018-07-08T22:39:54.475Z,66.80
2018-07-08T22:40:54.638Z,66.52
2018-07-08T22:41:54.785Z,66.52
2018-07-08T22:42:54.942Z,67.00
2018-07-08T22:43:55.097Z,67.09
2018-07-08T22:44:55.254Z,67.57
2018-07-08T22:45:55.410Z,67.92
2018-07-08T22:46:55.561Z,67.76
2018-07-08T22:47:55.716Z,67.67
2018-07-08T22:48:55.870Z,67.67
2018-07-08T22:49:56.026Z,68.02
2018-07-08T22:50:56.180Z,68.69
2018-07-08T22:51:56.332Z,68.50
2018-07-08T22:52:56.488Z,69.17
2018-07-08T22:53:56.644Z,68.59
2018-07-08T22:54:56.797Z,69.17
2018-07-08T22:55:56.951Z,69.26
2018-07-08T22:56:57.105Z,69.26
2018-07-08T22:57:57.262Z,68.88
2018-07-08T22:58:57.429Z,69.07
2018-07-08T22:59:57.568Z,69.93
2018-07-08T23:00:57.736Z,69.84
2018-07-08T23:01:57.895Z,69.07
2018-07-08T23:02:58.045Z,68.88
2018-07-08T23:03:58.204Z,69.46
2018-07-08T23:04:58.360Z,69.26
2018-07-08T23:05:58.512Z,69.56
2018-07-08T23:06:58.667Z,69.36
2018-07-08T23:07:58.822Z,69.26
2018-07-08T23:08:58.975Z,69.36
2018-07-08T23:09:59.128Z,68.98
2018-07-08T23:10:59.285Z,68.98
2018-07-08T23:11:59.438Z,69.36
2018-07-08T23:12:59.591Z,69.84
2018-07-08T23:13:59.745Z,69.26
2018-07-08T23:14:59.902Z,69.74
2018-07-08T23:16:00.056Z,70.00
2018-07-08T23:17:00.211Z,70.86
2018-07-08T23:18:00.364Z,70.96
2018-07-08T23:19:00.522Z,70.19
2018-07-08T23:20:00.724Z,70.96
2018-07-08T23:21:00.831Z,71.44
2018-07-08T23:22:00.984Z,70.86
2018-07-08T23:23:01.138Z,70.86
2018-07-08T23:24:01.290Z,71.34
2018-07-08T23:25:01.444Z,71.34
2018-07-08T23:26:01.602Z,71.53
2018-07-08T23:27:01.754Z,71.53
2018-07-08T23:28:01.906Z,71.44
2018-07-08T23:29:02.062Z,72.49
2018-07-08T23:30:02.219Z,71.72
2018-07-08T23:31:02.371Z,72.55
2018-07-08T23:32:02.522Z,72.74
2018-07-08T23:33:02.678Z,73.32
2018-07-08T23:34:02.834Z,73.13
2018-07-08T23:35:02.983Z,73.41
2018-07-08T23:36:03.141Z,73.51
2018-07-08T23:37:03.294Z,73.90
2018-07-08T23:38:03.445Z,74.18
2018-07-08T23:39:03.598Z,74.37
2018-07-08T23:40:03.754Z,74.08
2018-07-08T23:41:03.906Z,74.27
2018-07-08T23:42:04.060Z,74.27
2018-07-08T23:43:04.216Z,74.85
2018-07-08T23:44:04.372Z,73.80
2018-07-08T23:45:04.527Z,74.37
2018-07-08T23:46:04.674Z,74.33
2018-07-08T23:47:04.829Z,74.52
2018-07-08T23:48:04.985Z,74.72
2018-07-08T23:49:05.135Z,74.91
2018-07-08T23:50:05.290Z,75.20
2018-07-08T23:51:05.451Z,75.01
2018-07-08T23:52:05.595Z,74.82
2018-07-08T23:53:05.754Z,76.15
2018-07-08T23:54:05.903Z,76.25
2018-07-08T23:55:06.057Z,75.96
2018-07-08T23:56:06.209Z,77.11
2018-07-08T23:57:06.364Z,76.54
2018-07-08T23:58:06.517Z,76.73
2018-07-08T23:59:06.668Z,77.02
